sensor_id;sensor_type;location;lat;lon;timestamp;pressure;altitude;pressure_sealevel;temperature;humidity
49341;BME280;35209;51.050;13.678;2022-11-15T00:04:45;99946.47;;;4.74;100.00
49341;BME280;35209;51.050;13.678;2022-11-15T00:10:06;99946.31;;;4.92;100.00
49341;BME280;35209;51.050;13.678;2022-11-15T00:15:26;99939.44;;;4.82;100.00
49341;BME280;35209;51.050;13.678;2022-11-15T00:20:46;99937.69;;;4.84;100.00
49341;BME280;35209;51.050;13.678;2022-11-15T00:26:15;99926.47;;;4.77;100.00
49341;BME280;35209;51.050;13.678;2022-11-15T00:31:36;99922.00;;;4.92;100.00
49341;BME280;35209;51.050;13.678;2022-11-15T00:36:56;99924.56;;;4.93;100.00
49341;BME280;35209;51.050;13.678;2022-11-15T00:42:16;99925.88;;;5.31;100.00
49341;BME280;35209;51.050;13.678;2022-11-15T00:47:37;99926.41;;;5.59;100.00
49341;BME280;35209;51.050;13.678;2022-11-15T00:52:57;99918.50;;;5.62;100.00
49341;BME280;35209;51.050;13.678;2022-11-15T00:58:17;99910.97;;;5.42;100.00
49341;BME280;35209;51.050;13.678;2022-11-15T01:03:38;99918.41;;;5.02;100.00
49341;BME280;35209;51.050;13.678;2022-11-15T01:08:59;99915.13;;;4.83;100.00
49341;BME280;35209;51.050;13.678;2022-11-15T01:14:19;99906.97;;;5.15;100.00
49341;BME280;35209;51.050;13.678;2022-11-15T01:19:44;99898.78;;;4.69;100.00
49341;BME280;35209;51.050;13.678;2022-11-15T01:25:04;99903.44;;;4.33;100.00
49341;BME280;35209;51.050;13.678;2022-11-15T01:30:25;99899.25;;;4.15;100.00
49341;BME280;35209;51.050;13.678;2022-11-15T01:35:45;99893.84;;;4.41;100.00
49341;BME280;35209;51.050;13.678;2022-11-15T01:41:05;99894.84;;;4.23;100.00
49341;BME280;35209;51.050;13.678;2022-11-15T01:46:32;99886.31;;;4.08;100.00
49341;BME280;35209;51.050;13.678;2022-11-15T01:51:53;99871.56;;;4.10;100.00
49341;BME280;35209;51.050;13.678;2022-11-15T01:57:14;99857.03;;;3.79;100.00
49341;BME280;35209;51.050;13.678;2022-11-15T02:02:36;99856.16;;;3.80;100.00
49341;BME280;35209;51.050;13.678;2022-11-15T02:07:57;99859.59;;;3.87;100.00
49341;BME280;35209;51.050;13.678;2022-11-15T02:13:17;99859.50;;;3.99;100.00
49341;BME280;35209;51.050;13.678;2022-11-15T02:18:41;99855.13;;;4.04;100.00
49341;BME280;35209;51.050;13.678;2022-11-15T02:30:00;99852.31;;;4.30;100.00
49341;BME280;35209;51.050;13.678;2022-11-15T02:35:36;99840.09;;;4.37;100.00
49341;BME280;35209;51.050;13.678;2022-11-15T02:41:01;99835.91;;;4.22;100.00
49341;BME280;35209;51.050;13.678;2022-11-15T02:52:15;99822.63;;;4.47;100.00
49341;BME280;35209;51.050;13.678;2022-11-15T02:57:42;99820.66;;;4.69;100.00
49341;BME280;35209;51.050;13.678;2022-11-15T03:14:21;99803.50;;;4.52;100.00
49341;BME280;35209;51.050;13.678;2022-11-15T03:20:00;99800.47;;;4.89;100.00
49341;BME280;35209;51.050;13.678;2022-11-15T03:25:24;99798.81;;;4.82;100.00
49341;BME280;35209;51.050;13.678;2022-11-15T03:30:47;99793.78;;;4.70;100.00
49341;BME280;35209;51.050;13.678;2022-11-15T03:36:09;99796.16;;;4.85;100.00
49341;BME280;35209;51.050;13.678;2022-11-15T03:41:52;99792.03;;;4.70;100.00
49341;BME280;35209;51.050;13.678;2022-11-15T03:47:21;99788.50;;;4.73;100.00
49341;BME280;35209;51.050;13.678;2022-11-15T03:52:45;99787.50;;;4.85;100.00
49341;BME280;35209;51.050;13.678;2022-11-15T03:58:06;99780.50;;;4.90;100.00
49341;BME280;35209;51.050;13.678;2022-11-15T04:03:26;99783.25;;;4.76;100.00
49341;BME280;35209;51.050;13.678;2022-11-15T04:08:47;99776.34;;;4.75;100.00
49341;BME280;35209;51.050;13.678;2022-11-15T04:14:07;99771.88;;;4.85;100.00
49341;BME280;35209;51.050;13.678;2022-11-15T04:19:27;99771.78;;;4.92;100.00
49341;BME280;35209;51.050;13.678;2022-11-15T04:25:08;99779.66;;;4.88;100.00
49341;BME280;35209;51.050;13.678;2022-11-15T04:30:28;99771.84;;;4.88;100.00
49341;BME280;35209;51.050;13.678;2022-11-15T04:35:48;99765.66;;;4.95;100.00
49341;BME280;35209;51.050;13.678;2022-11-15T04:41:28;99765.84;;;4.83;100.00
49341;BME280;35209;51.050;13.678;2022-11-15T04:46:48;99766.13;;;4.58;100.00
49341;BME280;35209;51.050;13.678;2022-11-15T04:52:09;99760.84;;;4.66;100.00
49341;BME280;35209;51.050;13.678;2022-11-15T04:57:29;99756.22;;;4.86;100.00
49341;BME280;35209;51.050;13.678;2022-11-15T05:02:50;99756.22;;;4.86;100.00
49341;BME280;35209;51.050;13.678;2022-11-15T05:08:29;99746.72;;;4.84;100.00
49341;BME280;35209;51.050;13.678;2022-11-15T05:13:49;99746.00;;;4.71;100.00
49341;BME280;35209;51.050;13.678;2022-11-15T05:19:09;99747.00;;;4.62;100.00
49341;BME280;35209;51.050;13.678;2022-11-15T05:24:30;99743.31;;;4.77;100.00
49341;BME280;35209;51.050;13.678;2022-11-15T05:29:50;99736.31;;;4.84;100.00
49341;BME280;35209;51.050;13.678;2022-11-15T05:35:26;99738.75;;;4.94;100.00
49341;BME280;35209;51.050;13.678;2022-11-15T05:40:49;99744.81;;;4.95;100.00
49341;BME280;35209;51.050;13.678;2022-11-15T05:46:10;99746.66;;;4.87;100.00
49341;BME280;35209;51.050;13.678;2022-11-15T05:51:30;99738.63;;;5.05;100.00
49341;BME280;35209;51.050;13.678;2022-11-15T05:56:51;99733.34;;;5.10;100.00
49341;BME280;35209;51.050;13.678;2022-11-15T06:02:11;99732.34;;;5.17;100.00
49341;BME280;35209;51.050;13.678;2022-11-15T06:07:32;99740.97;;;5.22;100.00
49341;BME280;35209;51.050;13.678;2022-11-15T06:13:04;99738.19;;;5.34;100.00
49341;BME280;35209;51.050;13.678;2022-11-15T06:18:25;99720.72;;;5.39;100.00
49341;BME280;35209;51.050;13.678;2022-11-15T06:23:45;99739.03;;;5.36;100.00
49341;BME280;35209;51.050;13.678;2022-11-15T06:29:06;99752.38;;;5.15;100.00
49341;BME280;35209;51.050;13.678;2022-11-15T06:34:26;99757.72;;;5.05;100.00
49341;BME280;35209;51.050;13.678;2022-11-15T06:39:46;99759.97;;;5.31;100.00
49341;BME280;35209;51.050;13.678;2022-11-15T06:45:07;99754.63;;;5.38;100.00
49341;BME280;35209;51.050;13.678;2022-11-15T06:50:27;99744.84;;;5.53;100.00
49341;BME280;35209;51.050;13.678;2022-11-15T06:55:48;99749.06;;;5.61;100.00
49341;BME280;35209;51.050;13.678;2022-11-15T07:01:14;99755.16;;;5.60;100.00
49341;BME280;35209;51.050;13.678;2022-11-15T07:06:34;99759.53;;;5.59;100.00
49341;BME280;35209;51.050;13.678;2022-11-15T07:11:55;99760.78;;;5.88;100.00
49341;BME280;35209;51.050;13.678;2022-11-15T07:17:15;99761.59;;;5.94;100.00
49341;BME280;35209;51.050;13.678;2022-11-15T07:22:35;99765.09;;;5.93;100.00
49341;BME280;35209;51.050;13.678;2022-11-15T07:27:59;99766.00;;;5.89;100.00
49341;BME280;35209;51.050;13.678;2022-11-15T07:33:20;99771.16;;;5.94;100.00
49341;BME280;35209;51.050;13.678;2022-11-15T07:38:40;99769.00;;;6.17;100.00
49341;BME280;35209;51.050;13.678;2022-11-15T07:44:02;99764.34;;;6.35;100.00
49341;BME280;35209;51.050;13.678;2022-11-15T07:49:22;99766.88;;;6.38;100.00
49341;BME280;35209;51.050;13.678;2022-11-15T07:54:43;99770.13;;;6.49;100.00
49341;BME280;35209;51.050;13.678;2022-11-15T08:00:05;99765.84;;;6.46;100.00
49341;BME280;35209;51.050;13.678;2022-11-15T08:05:25;99762.19;;;6.55;100.00
49341;BME280;35209;51.050;13.678;2022-11-15T08:10:46;99751.81;;;6.50;100.00
49341;BME280;35209;51.050;13.678;2022-11-15T08:16:06;99755.81;;;6.70;100.00
49341;BME280;35209;51.050;13.678;2022-11-15T08:21:26;99750.81;;;6.99;100.00
49341;BME280;35209;51.050;13.678;2022-11-15T08:26:46;99754.56;;;6.86;100.00
49341;BME280;35209;51.050;13.678;2022-11-15T08:32:07;99742.59;;;7.16;100.00
49341;BME280;35209;51.050;13.678;2022-11-15T08:37:27;99737.41;;;7.15;100.00
49341;BME280;35209;51.050;13.678;2022-11-15T08:42:48;99747.38;;;7.36;100.00
49341;BME280;35209;51.050;13.678;2022-11-15T08:48:08;99735.69;;;7.51;100.00
49341;BME280;35209;51.050;13.678;2022-11-15T08:53:28;99730.53;;;7.48;100.00
49341;BME280;35209;51.050;13.678;2022-11-15T08:58:48;99726.59;;;7.67;100.00
49341;BME280;35209;51.050;13.678;2022-11-15T09:04:08;99716.63;;;7.81;100.00
49341;BME280;35209;51.050;13.678;2022-11-15T09:09:29;99715.78;;;7.81;100.00
49341;BME280;35209;51.050;13.678;2022-11-15T09:14:49;99717.09;;;8.30;100.00
49341;BME280;35209;51.050;13.678;2022-11-15T09:20:09;99721.53;;;8.26;100.00
49341;BME280;35209;51.050;13.678;2022-11-15T09:25:31;99720.03;;;8.18;100.00
49341;BME280;35209;51.050;13.678;2022-11-15T09:30:55;99723.81;;;8.40;100.00
49341;BME280;35209;51.050;13.678;2022-11-15T09:36:15;99712.84;;;8.57;100.00
49341;BME280;35209;51.050;13.678;2022-11-15T09:53:14;99703.16;;;8.90;99.36
49341;BME280;35209;51.050;13.678;2022-11-15T10:04:36;99689.44;;;8.82;100.00
49341;BME280;35209;51.050;13.678;2022-11-15T10:14:45;99679.91;;;9.60;94.09
49341;BME280;35209;51.050;13.678;2022-11-15T10:20:28;99676.59;;;9.55;93.89
49341;BME280;35209;51.050;13.678;2022-11-15T10:25:32;99673.03;;;9.58;93.27
49341;BME280;35209;51.050;13.678;2022-11-15T10:30:37;99659.97;;;9.56;93.87
49341;BME280;35209;51.050;13.678;2022-11-15T10:35:39;99661.03;;;9.76;91.58
49341;BME280;35209;51.050;13.678;2022-11-15T10:40:41;99642.94;;;10.18;89.59
49341;BME280;35209;51.050;13.678;2022-11-15T10:45:46;99644.97;;;11.24;81.75
49341;BME280;35209;51.050;13.678;2022-11-15T10:50:49;99641.50;;;12.46;75.56
49341;BME280;35209;51.050;13.678;2022-11-15T10:55:55;99636.47;;;12.97;72.59
49341;BME280;35209;51.050;13.678;2022-11-15T11:01:16;99633.91;;;13.33;71.07
49341;BME280;35209;51.050;13.678;2022-11-15T11:06:18;99620.06;;;13.45;69.44
49341;BME280;35209;51.050;13.678;2022-11-15T11:11:20;99608.28;;;13.70;67.20
49341;BME280;35209;51.050;13.678;2022-11-15T11:17:29;99610.28;;;13.65;65.77
49341;BME280;35209;51.050;13.678;2022-11-15T11:22:13;99604.53;;;13.91;65.45
49341;BME280;35209;51.050;13.678;2022-11-15T11:27:40;99594.44;;;12.94;68.71
49341;BME280;35209;51.050;13.678;2022-11-15T11:32:59;99585.78;;;12.54;71.33
49341;BME280;35209;51.050;13.678;2022-11-15T11:43:23;99585.59;;;11.80;74.94
49341;BME280;35209;51.050;13.678;2022-11-15T11:48:43;99577.34;;;11.69;76.28
49341;BME280;35209;51.050;13.678;2022-11-15T11:53:54;99570.47;;;11.85;75.23
49341;BME280;35209;51.050;13.678;2022-11-15T11:59:09;99564.41;;;12.41;72.09
49341;BME280;35209;51.050;13.678;2022-11-15T12:09:41;99545.38;;;11.76;73.86
49341;BME280;35209;51.050;13.678;2022-11-15T12:15:03;99535.66;;;11.37;75.57
49341;BME280;35209;51.050;13.678;2022-11-15T12:21:13;99527.69;;;10.98;77.74
49341;BME280;35209;51.050;13.678;2022-11-15T12:26:08;99520.53;;;10.80;79.92
49341;BME280;35209;51.050;13.678;2022-11-15T12:31:43;99514.13;;;10.87;80.58
49341;BME280;35209;51.050;13.678;2022-11-15T12:36:49;99494.25;;;10.80;80.57
49341;BME280;35209;51.050;13.678;2022-11-15T13:02:18;99471.00;;;10.49;81.51
49341;BME280;35209;51.050;13.678;2022-11-15T13:17:50;99472.72;;;10.28;82.80
49341;BME280;35209;51.050;13.678;2022-11-15T13:33:36;99458.84;;;9.79;85.95
49341;BME280;35209;51.050;13.678;2022-11-15T13:38:42;99450.81;;;9.82;85.80
49341;BME280;35209;51.050;13.678;2022-11-15T13:43:44;99460.19;;;9.89;83.98
49341;BME280;35209;51.050;13.678;2022-11-15T13:48:51;99454.25;;;9.84;83.26
49341;BME280;35209;51.050;13.678;2022-11-15T13:53:57;99450.91;;;9.57;84.99
49341;BME280;35209;51.050;13.678;2022-11-15T13:59:19;99446.84;;;9.48;85.14
49341;BME280;35209;51.050;13.678;2022-11-15T14:04:26;99447.91;;;9.43;84.89
49341;BME280;35209;51.050;13.678;2022-11-15T14:09:39;99439.09;;;9.20;86.07
49341;BME280;35209;51.050;13.678;2022-11-15T14:14:45;99439.00;;;9.23;85.78
49341;BME280;35209;51.050;13.678;2022-11-15T14:19:47;99435.50;;;8.99;87.08
49341;BME280;35209;51.050;13.678;2022-11-15T14:25:13;99442.22;;;8.81;88.08
49341;BME280;35209;51.050;13.678;2022-11-15T14:30:16;99425.94;;;8.72;88.81
49341;BME280;35209;51.050;13.678;2022-11-15T14:35:22;99428.75;;;8.66;89.23
49341;BME280;35209;51.050;13.678;2022-11-15T14:40:24;99433.47;;;8.56;89.33
49341;BME280;35209;51.050;13.678;2022-11-15T14:45:27;99426.75;;;8.47;89.78
49341;BME280;35209;51.050;13.678;2022-11-15T14:50:29;99426.16;;;8.39;90.26
49341;BME280;35209;51.050;13.678;2022-11-15T14:55:35;99425.75;;;8.23;91.25
49341;BME280;35209;51.050;13.678;2022-11-15T15:00:39;99425.25;;;8.12;91.97
49341;BME280;35209;51.050;13.678;2022-11-15T15:05:43;99418.44;;;8.06;92.20
49341;BME280;35209;51.050;13.678;2022-11-15T15:10:45;99417.81;;;7.70;93.82
49341;BME280;35209;51.050;13.678;2022-11-15T15:15:48;99403.84;;;7.70;94.74
49341;BME280;35209;51.050;13.678;2022-11-15T15:20:56;99402.97;;;7.41;96.28
49341;BME280;35209;51.050;13.678;2022-11-15T15:25:59;99399.31;;;7.47;95.96
49341;BME280;35209;51.050;13.678;2022-11-15T15:31:01;99403.31;;;7.29;96.22
49341;BME280;35209;51.050;13.678;2022-11-15T15:36:03;99407.94;;;7.19;97.37
49341;BME280;35209;51.050;13.678;2022-11-15T15:41:09;99408.47;;;6.99;98.26
49341;BME280;35209;51.050;13.678;2022-11-15T15:46:14;99396.78;;;6.81;99.07
49341;BME280;35209;51.050;13.678;2022-11-15T15:51:16;99400.22;;;6.83;100.00
49341;BME280;35209;51.050;13.678;2022-11-15T15:56:20;99397.56;;;6.85;99.22
49341;BME280;35209;51.050;13.678;2022-11-15T16:01:22;99397.25;;;6.65;100.00
49341;BME280;35209;51.050;13.678;2022-11-15T16:06:40;99401.81;;;6.56;100.00
49341;BME280;35209;51.050;13.678;2022-11-15T16:11:46;99395.44;;;6.67;100.00
49341;BME280;35209;51.050;13.678;2022-11-15T16:16:48;99394.44;;;6.38;100.00
49341;BME280;35209;51.050;13.678;2022-11-15T16:21:49;99400.75;;;6.28;100.00
49341;BME280;35209;51.050;13.678;2022-11-15T16:26:53;99399.13;;;6.24;100.00
49341;BME280;35209;51.050;13.678;2022-11-15T16:31:55;99392.56;;;6.07;100.00
49341;BME280;35209;51.050;13.678;2022-11-15T16:36:57;99383.47;;;6.24;100.00
49341;BME280;35209;51.050;13.678;2022-11-15T16:41:59;99384.13;;;5.96;100.00
49341;BME280;35209;51.050;13.678;2022-11-15T16:47:01;99380.72;;;5.94;100.00
49341;BME280;35209;51.050;13.678;2022-11-15T16:52:03;99375.28;;;6.03;100.00
49341;BME280;35209;51.050;13.678;2022-11-15T16:57:04;99368.56;;;5.93;100.00
49341;BME280;35209;51.050;13.678;2022-11-15T17:02:13;99374.97;;;5.77;100.00
49341;BME280;35209;51.050;13.678;2022-11-15T17:07:15;99372.31;;;5.80;100.00
49341;BME280;35209;51.050;13.678;2022-11-15T17:12:17;99368.72;;;5.84;100.00
49341;BME280;35209;51.050;13.678;2022-11-15T17:17:19;99364.44;;;5.81;100.00
49341;BME280;35209;51.050;13.678;2022-11-15T17:22:22;99355.09;;;5.73;100.00
49341;BME280;35209;51.050;13.678;2022-11-15T17:27:23;99354.19;;;5.74;100.00
49341;BME280;35209;51.050;13.678;2022-11-15T17:32:25;99350.09;;;5.64;100.00
49341;BME280;35209;51.050;13.678;2022-11-15T17:37:27;99357.22;;;5.55;100.00
49341;BME280;35209;51.050;13.678;2022-11-15T17:42:29;99358.31;;;5.45;100.00
49341;BME280;35209;51.050;13.678;2022-11-15T17:47:30;99363.28;;;5.56;100.00
49341;BME280;35209;51.050;13.678;2022-11-15T17:52:32;99344.78;;;5.28;100.00
49341;BME280;35209;51.050;13.678;2022-11-15T17:57:34;99336.00;;;5.32;100.00
49341;BME280;35209;51.050;13.678;2022-11-15T18:02:36;99335.25;;;5.27;100.00
49341;BME280;35209;51.050;13.678;2022-11-15T18:07:38;99330.06;;;5.27;100.00
49341;BME280;35209;51.050;13.678;2022-11-15T18:12:39;99320.69;;;5.18;100.00
49341;BME280;35209;51.050;13.678;2022-11-15T18:17:41;99320.44;;;5.29;100.00
49341;BME280;35209;51.050;13.678;2022-11-15T18:22:43;99317.19;;;5.18;100.00
49341;BME280;35209;51.050;13.678;2022-11-15T18:27:45;99317.44;;;5.07;100.00
49341;BME280;35209;51.050;13.678;2022-11-15T18:32:47;99308.72;;;5.10;100.00
49341;BME280;35209;51.050;13.678;2022-11-15T18:37:48;99302.53;;;5.14;100.00
49341;BME280;35209;51.050;13.678;2022-11-15T18:42:52;99295.69;;;5.10;100.00
49341;BME280;35209;51.050;13.678;2022-11-15T18:47:55;99295.69;;;5.10;100.00
49341;BME280;35209;51.050;13.678;2022-11-15T18:52:57;99284.81;;;4.89;100.00
49341;BME280;35209;51.050;13.678;2022-11-15T18:58:01;99286.41;;;4.96;100.00
49341;BME280;35209;51.050;13.678;2022-11-15T19:03:03;99283.16;;;4.85;100.00
49341;BME280;35209;51.050;13.678;2022-11-15T19:08:04;99289.13;;;4.90;100.00
49341;BME280;35209;51.050;13.678;2022-11-15T19:13:06;99291.72;;;4.90;100.00
49341;BME280;35209;51.050;13.678;2022-11-15T19:18:08;99292.53;;;4.94;100.00
49341;BME280;35209;51.050;13.678;2022-11-15T19:23:10;99282.41;;;4.80;100.00
49341;BME280;35209;51.050;13.678;2022-11-15T19:28:11;99274.72;;;4.72;100.00
49341;BME280;35209;51.050;13.678;2022-11-15T19:33:13;99289.66;;;4.64;100.00
49341;BME280;35209;51.050;13.678;2022-11-15T19:38:15;99289.63;;;4.66;100.00
49341;BME280;35209;51.050;13.678;2022-11-15T19:43:16;99292.06;;;4.73;100.00
49341;BME280;35209;51.050;13.678;2022-11-15T19:48:18;99285.38;;;4.60;100.00
49341;BME280;35209;51.050;13.678;2022-11-15T19:53:22;99280.03;;;4.68;100.00
49341;BME280;35209;51.050;13.678;2022-11-15T19:58:28;99268.63;;;4.75;100.00
49341;BME280;35209;51.050;13.678;2022-11-15T20:03:31;99269.91;;;4.54;100.00
49341;BME280;35209;51.050;13.678;2022-11-15T20:08:34;99267.25;;;4.55;100.00
49341;BME280;35209;51.050;13.678;2022-11-15T20:13:37;99268.19;;;4.53;100.00
49341;BME280;35209;51.050;13.678;2022-11-15T20:18:39;99266.47;;;4.52;100.00
49341;BME280;35209;51.050;13.678;2022-11-15T20:23:40;99264.88;;;4.45;100.00
49341;BME280;35209;51.050;13.678;2022-11-15T20:28:43;99271.88;;;4.41;100.00
49341;BME280;35209;51.050;13.678;2022-11-15T20:33:45;99257.28;;;4.33;100.00
49341;BME280;35209;51.050;13.678;2022-11-15T20:38:46;99255.50;;;4.36;100.00
49341;BME280;35209;51.050;13.678;2022-11-15T20:43:48;99250.16;;;4.42;100.00
49341;BME280;35209;51.050;13.678;2022-11-15T20:48:50;99241.53;;;4.40;100.00
49341;BME280;35209;51.050;13.678;2022-11-15T20:53:52;99243.38;;;4.35;100.00
49341;BME280;35209;51.050;13.678;2022-11-15T20:58:54;99238.22;;;4.32;100.00
49341;BME280;35209;51.050;13.678;2022-11-15T21:03:57;99246.16;;;4.24;100.00
49341;BME280;35209;51.050;13.678;2022-11-15T21:08:59;99237.28;;;4.36;100.00
49341;BME280;35209;51.050;13.678;2022-11-15T21:14:19;99227.00;;;4.30;100.00
49341;BME280;35209;51.050;13.678;2022-11-15T21:19:21;99218.22;;;4.36;100.00
49341;BME280;35209;51.050;13.678;2022-11-15T21:24:33;99219.44;;;4.18;100.00
49341;BME280;35209;51.050;13.678;2022-11-15T21:29:34;99211.00;;;4.05;100.00
49341;BME280;35209;51.050;13.678;2022-11-15T21:34:39;99212.22;;;3.84;100.00
49341;BME280;35209;51.050;13.678;2022-11-15T21:39:41;99210.50;;;4.31;100.00
49341;BME280;35209;51.050;13.678;2022-11-15T21:44:46;99203.06;;;4.11;100.00
49341;BME280;35209;51.050;13.678;2022-11-15T21:49:47;99197.06;;;4.09;100.00
49341;BME280;35209;51.050;13.678;2022-11-15T21:54:49;99193.66;;;4.05;100.00
49341;BME280;35209;51.050;13.678;2022-11-15T21:59:51;99186.38;;;4.23;100.00
49341;BME280;35209;51.050;13.678;2022-11-15T22:05:11;99177.13;;;4.08;100.00
49341;BME280;35209;51.050;13.678;2022-11-15T22:10:13;99182.44;;;4.03;100.00
49341;BME280;35209;51.050;13.678;2022-11-15T22:15:17;99182.25;;;4.11;100.00
49341;BME280;35209;51.050;13.678;2022-11-15T22:20:19;99174.53;;;4.07;100.00
49341;BME280;35209;51.050;13.678;2022-11-15T22:25:41;99162.47;;;4.02;100.00
49341;BME280;35209;51.050;13.678;2022-11-15T22:30:44;99169.28;;;4.10;100.00
49341;BME280;35209;51.050;13.678;2022-11-15T22:35:46;99151.50;;;3.90;100.00
49341;BME280;35209;51.050;13.678;2022-11-15T22:40:48;99142.03;;;3.84;100.00
49341;BME280;35209;51.050;13.678;2022-11-15T22:50:51;99119.56;;;3.82;100.00
49341;BME280;35209;51.050;13.678;2022-11-15T22:55:55;99115.75;;;3.53;100.00
49341;BME280;35209;51.050;13.678;2022-11-15T23:00:59;99116.44;;;3.63;100.00
49341;BME280;35209;51.050;13.678;2022-11-15T23:06:05;99109.44;;;3.68;100.00
49341;BME280;35209;51.050;13.678;2022-11-15T23:11:09;99103.69;;;3.49;100.00
49341;BME280;35209;51.050;13.678;2022-11-15T23:16:29;99103.69;;;3.49;100.00
49341;BME280;35209;51.050;13.678;2022-11-15T23:21:42;99087.94;;;3.58;100.00
49341;BME280;35209;51.050;13.678;2022-11-15T23:27:05;99080.91;;;3.65;100.00
49341;BME280;35209;51.050;13.678;2022-11-15T23:32:07;99072.34;;;3.60;100.00
49341;BME280;35209;51.050;13.678;2022-11-15T23:37:27;99068.38;;;3.85;100.00
49341;BME280;35209;51.050;13.678;2022-11-15T23:42:29;99056.66;;;4.08;100.00
49341;BME280;35209;51.050;13.678;2022-11-15T23:47:31;99062.31;;;4.26;100.00
49341;BME280;35209;51.050;13.678;2022-11-15T23:52:32;99053.75;;;4.21;100.00
49341;BME280;35209;51.050;13.678;2022-11-15T23:57:34;99059.72;;;4.25;100.00
